createdAt,value
2023-02-11T00:01:56.354Z,57.70
2023-02-11T00:06:58.019Z,66.90
2023-02-11T00:12:03.835Z,58.90
2023-02-11T00:17:05.475Z,57.60
2023-02-11T00:22:07.482Z,56.60
2023-02-11T00:27:09.411Z,58.60
2023-02-11T00:32:11.263Z,56.00
2023-02-11T00:37:13.098Z,57.00
2023-02-11T00:42:16.924Z,60.10
2023-02-11T00:47:20.223Z,58.60
2023-02-11T00:52:27.422Z,57.20
2023-02-11T00:57:29.422Z,60.90
2023-02-11T01:02:31.357Z,62.00
2023-02-11T01:07:35.313Z,59.70
2023-02-11T01:12:40.150Z,57.00
2023-02-11T01:17:46.398Z,59.90
2023-02-11T01:22:56.586Z,50.20
2023-02-11T01:28:16.025Z,57.30
2023-02-11T01:33:34.250Z,55.20
2023-02-11T01:38:54.670Z,54.40
2023-02-11T01:44:30.899Z,51.00
2023-02-11T01:49:45.387Z,52.90
2023-02-11T01:55:13.878Z,47.90
2023-02-11T02:00:29.168Z,46.00
2023-02-11T02:06:02.748Z,47.00
2023-02-11T02:11:27.749Z,44.10
2023-02-11T02:16:33.469Z,45.90
2023-02-11T02:21:42.055Z,42.00
2023-02-11T02:27:39.157Z,43.70
2023-02-11T02:33:24.547Z,43.80
2023-02-11T02:38:56.609Z,43.30
2023-02-11T02:44:11.883Z,42.80
2023-02-11T02:49:24.108Z,45.00
2023-02-11T02:54:46.382Z,42.90
2023-02-11T03:00:07.266Z,41.10
2023-02-11T03:05:15.139Z,47.40
2023-02-11T03:10:31.039Z,44.70
2023-02-11T03:15:43.921Z,44.00
2023-02-11T03:21:22.482Z,45.80
2023-02-11T03:26:40.284Z,44.60
2023-02-11T03:31:52.465Z,41.30
2023-02-11T03:37:01.976Z,41.40
2023-02-11T03:42:15.783Z,41.30
2023-02-11T03:47:26.996Z,41.00
2023-02-11T03:52:32.176Z,39.50
2023-02-11T03:57:36.631Z,42.30
2023-02-11T04:02:42.737Z,42.10
2023-02-11T04:07:44.650Z,38.20
2023-02-11T04:12:54.066Z,41.50
2023-02-11T04:17:58.174Z,40.50
2023-02-11T04:23:00.268Z,39.30
2023-02-11T04:28:01.898Z,39.10
2023-02-11T04:33:03.582Z,38.50
2023-02-11T04:38:13.225Z,37.00
2023-02-11T04:43:19.779Z,36.40
2023-02-11T04:48:28.720Z,38.40
2023-02-11T04:53:32.912Z,35.40
2023-02-11T04:58:37.651Z,33.60
2023-02-11T05:03:39.663Z,38.10
2023-02-11T05:08:44.518Z,37.10
2023-02-11T05:13:46.842Z,34.80
2023-02-11T05:18:53.101Z,36.20
2023-02-11T05:23:57.488Z,33.70
2023-02-11T05:28:59.394Z,38.30
2023-02-11T05:34:03.364Z,35.20
2023-02-11T05:39:05.542Z,37.50
2023-02-11T05:44:15.842Z,35.80
2023-02-11T05:49:19.803Z,33.60
2023-02-11T05:54:24.195Z,31.00
2023-02-11T05:59:28.984Z,34.40
2023-02-11T06:04:30.678Z,33.60
2023-02-11T06:09:34.787Z,33.60
2023-02-11T06:14:36.888Z,33.10
2023-02-11T06:19:41.035Z,33.90
2023-02-11T06:25:00.361Z,34.90
2023-02-11T06:30:09.563Z,37.20
2023-02-11T06:35:14.083Z,35.30
2023-02-11T06:40:16.055Z,34.60
2023-02-11T06:45:32.632Z,34.20
2023-02-11T06:50:34.464Z,37.20
2023-02-11T06:55:39.316Z,38.80
2023-02-11T07:00:41.360Z,34.70
2023-02-11T07:05:43.334Z,36.70
2023-02-11T07:10:47.466Z,37.40
2023-02-11T07:15:51.757Z,36.10
2023-02-11T07:20:53.309Z,35.80
2023-02-11T07:25:57.272Z,37.60
2023-02-11T07:30:58.995Z,36.40
2023-02-11T07:36:07.839Z,38.60
2023-02-11T07:41:33.719Z,39.70
2023-02-11T07:46:42.405Z,31.80
2023-02-11T07:52:29.806Z,35.20
2023-02-11T07:57:56.015Z,34.70
2023-02-11T08:04:19.813Z,33.80
2023-02-11T08:09:36.661Z,35.30
2023-02-11T08:15:11.943Z,35.50
2023-02-11T08:20:27.073Z,33.50
2023-02-11T08:25:34.513Z,35.00
2023-02-11T08:30:40.867Z,35.80
2023-02-11T08:35:59.502Z,32.90
2023-02-11T08:41:48.423Z,34.50
2023-02-11T08:47:51.998Z,34.50
2023-02-11T08:53:17.575Z,35.00
2023-02-11T08:59:00.888Z,33.60
2023-02-11T09:04:02.622Z,37.80
2023-02-11T09:09:04.439Z,39.50
2023-02-11T09:14:06.193Z,37.50
2023-02-11T09:19:09.670Z,35.90
2023-02-11T09:24:11.582Z,35.90
2023-02-11T09:29:13.120Z,36.50
2023-02-11T09:34:15.435Z,37.00
2023-02-11T09:39:19.739Z,34.80
2023-02-11T09:44:24.820Z,36.70
2023-02-11T09:49:39.932Z,39.30
2023-02-11T09:54:50.322Z,36.20
2023-02-11T09:59:54.080Z,35.50
2023-02-11T10:05:16.126Z,37.90
2023-02-11T10:10:37.410Z,35.60
2023-02-11T10:15:52.931Z,35.10
2023-02-11T10:21:45.895Z,34.60
2023-02-11T10:26:48.647Z,35.30
2023-02-11T10:31:58.453Z,34.70
2023-02-11T10:37:13.742Z,35.70
2023-02-11T10:43:11.788Z,35.90
2023-02-11T10:48:51.795Z,39.00
2023-02-11T10:54:15.774Z,34.50
2023-02-11T11:00:19.844Z,34.50
2023-02-11T11:06:06.192Z,34.50
2023-02-11T11:11:36.125Z,32.30
2023-02-11T11:16:53.928Z,32.00
2023-02-11T11:22:18.837Z,37.00
2023-02-11T11:27:59.559Z,35.90
2023-02-11T11:33:44.206Z,37.20
2023-02-11T11:39:32.467Z,34.50
2023-02-11T11:45:19.228Z,35.20
2023-02-11T11:50:30.480Z,35.30
2023-02-11T11:55:43.289Z,37.60
2023-02-11T12:01:01.462Z,35.90
2023-02-11T12:06:57.347Z,36.00
2023-02-11T12:13:12.711Z,35.40
2023-02-11T12:18:46.961Z,32.50
2023-02-11T12:24:30.234Z,35.50
2023-02-11T12:30:10.425Z,35.30
2023-02-11T12:35:29.624Z,34.80
2023-02-11T12:41:52.625Z,37.80
2023-02-11T12:47:26.573Z,37.40
2023-02-11T12:52:55.940Z,37.80
2023-02-11T12:58:02.372Z,35.20
2023-02-11T13:03:16.205Z,36.50
2023-02-11T13:08:47.319Z,35.30
2023-02-11T13:14:05.919Z,34.90
2023-02-11T13:19:47.871Z,35.90
2023-02-11T13:25:47.338Z,35.90
2023-02-11T13:31:11.925Z,36.50
2023-02-11T13:36:19.987Z,34.10
2023-02-11T13:41:32.247Z,36.40
2023-02-11T13:47:10.809Z,35.00
2023-02-11T13:52:38.216Z,33.00
2023-02-11T13:58:26.485Z,32.60
2023-02-11T14:04:46.385Z,33.00
2023-02-11T14:10:49.107Z,30.30
2023-02-11T14:16:38.399Z,31.10
2023-02-11T14:22:29.339Z,29.70
2023-02-11T14:29:01.156Z,29.40
2023-02-11T14:35:14.531Z,31.80
2023-02-11T14:40:58.229Z,31.30
2023-02-11T14:46:19.769Z,32.20
2023-02-11T14:51:49.507Z,31.60
2023-02-11T14:57:15.622Z,31.90
2023-02-11T15:02:47.820Z,31.40
2023-02-11T15:08:30.451Z,34.00
2023-02-11T15:13:47.667Z,37.00
2023-02-11T15:19:44.695Z,34.70
2023-02-11T15:25:35.645Z,34.60
2023-02-11T15:31:17.670Z,34.90
2023-02-11T15:37:03.644Z,36.50
2023-02-11T15:43:12.725Z,35.10
2023-02-11T15:49:03.575Z,33.40
2023-02-11T15:54:46.791Z,35.80
2023-02-11T16:00:59.479Z,34.50
2023-02-11T16:07:08.636Z,36.90
2023-02-11T16:12:35.417Z,32.00
2023-02-11T16:17:59.749Z,37.70
2023-02-11T16:23:07.792Z,37.20
2023-02-11T16:28:40.182Z,42.00
2023-02-11T16:34:45.357Z,40.00
2023-02-11T16:45:05.362Z,41.90
2023-02-11T16:50:30.467Z,45.00
2023-02-11T16:56:13.292Z,43.30
2023-02-11T17:01:37.853Z,44.40
2023-02-11T17:07:02.824Z,46.30
2023-02-11T17:12:29.488Z,45.70
2023-02-11T17:17:47.830Z,47.20
2023-02-11T17:22:56.229Z,45.40
2023-02-11T17:28:29.324Z,45.70
2023-02-11T17:33:51.694Z,48.40
2023-02-11T17:39:38.936Z,46.40
2023-02-11T17:45:22.508Z,44.10
2023-02-11T17:50:45.194Z,42.10
2023-02-11T17:56:01.842Z,47.80
2023-02-11T18:01:06.762Z,46.40
2023-02-11T18:06:08.418Z,48.50
2023-02-11T18:11:12.031Z,48.00
2023-02-11T18:16:15.080Z,46.30
2023-02-11T18:21:19.653Z,47.40
2023-02-11T18:26:21.527Z,47.10
2023-02-11T18:31:39.828Z,43.70
2023-02-11T18:36:44.997Z,40.80
2023-02-11T18:41:49.043Z,42.70
2023-02-11T18:46:53.321Z,40.30
2023-02-11T18:51:55.016Z,38.60
2023-02-11T18:56:56.907Z,39.50
2023-02-11T19:01:58.692Z,40.10
2023-02-11T19:07:03.263Z,37.40
2023-02-11T20:32:15.677Z,16.60
2023-02-11T20:37:20.134Z,16.40
2023-02-11T20:42:21.845Z,19.70
2023-02-11T20:47:23.668Z,18.90
2023-02-11T20:52:25.682Z,16.20
2023-02-11T20:58:26.949Z,17.40
2023-02-11T21:05:00.298Z,19.30
2023-02-11T21:11:23.806Z,18.90
2023-02-11T21:17:27.359Z,16.50
2023-02-11T21:22:29.177Z,16.00
2023-02-11T21:27:33.008Z,16.60
2023-02-11T21:32:34.685Z,17.70
2023-02-11T21:37:38.963Z,16.80
2023-02-11T21:42:41.194Z,19.40
2023-02-11T21:48:42.725Z,16.20
2023-02-11T21:55:06.152Z,15.10
2023-02-11T22:00:28.231Z,16.10
2023-02-11T22:05:32.219Z,16.10
2023-02-11T22:11:33.338Z,17.10
2023-02-11T22:17:35.556Z,14.40
2023-02-11T22:24:06.926Z,17.20
2023-02-11T22:30:28.007Z,16.90
2023-02-11T22:36:25.006Z,15.50
2023-02-11T22:42:32.274Z,18.10
2023-02-11T22:48:40.651Z,18.20
2023-02-11T22:55:43.175Z,17.50
2023-02-11T23:02:27.667Z,16.50
2023-02-11T23:09:11.278Z,17.20
2023-02-11T23:15:32.598Z,17.40
2023-02-11T23:22:12.091Z,16.00
2023-02-11T23:28:49.621Z,15.50
2023-02-11T23:34:30.368Z,16.20
2023-02-11T23:39:34.862Z,15.90
2023-02-11T23:45:16.924Z,16.90
2023-02-11T23:50:46.483Z,18.50
2023-02-11T23:56:26.113Z,15.10
